Time;durP1;ratioP1;P1;durP2;ratioP2;P2;SDS_P1;SDS_P2;PMS_P1;PMS_P2;Temp;Humidity;BMP_temperature;BMP_pressure;BME280_temperature;BME280_humidity;BME280_pressure;Samples;Min_cycle;Max_cycle;Signal;HPM_P1;HPM_P2
2022/12/01 00:02:48;;;;;;;27.20;10.93;;;;;;;6.86;100.00;100461.03;12221165;19;20127;-84
2022/12/01 00:06:50;;;;;;;28.20;10.75;;;;;;;6.82;100.00;100451.56;12197511;19;20006;-84
2022/12/01 00:10:52;;;;;;;26.30;11.35;;;;;;;6.82;100.00;100459.78;12219096;19;20007;-83
2022/12/01 00:14:59;;;;;;;27.15;12.27;;;;;;;6.81;100.00;100460.81;12219513;19;20014;-83
2022/12/01 00:19:01;;;;;;;26.58;11.10;;;;;;;6.75;100.00;100456.16;12193978;19;20102;-84
2022/12/01 00:23:03;;;;;;;29.27;12.32;;;;;;;6.74;100.00;100459.97;12216182;19;20432;-84
2022/12/01 00:27:04;;;;;;;23.42;10.05;;;;;;;6.74;100.00;100463.53;12194856;19;20014;-82
2022/12/01 00:31:08;;;;;;;26.80;11.07;;;;;;;6.74;100.00;100463.53;12213996;19;20022;-84
2022/12/01 00:35:11;;;;;;;22.65;11.40;;;;;;;6.73;100.00;100461.03;12213628;19;20035;-83
2022/12/01 00:39:13;;;;;;;29.75;11.23;;;;;;;6.71;100.00;100463.13;12189002;19;20014;-84
2022/12/01 00:43:15;;;;;;;28.63;10.57;;;;;;;6.64;100.00;100462.28;12210565;19;20010;-83
2022/12/01 00:47:17;;;;;;;20.45;9.88;;;;;;;6.62;100.00;100466.06;12210882;19;20007;-83
2022/12/01 00:51:18;;;;;;;23.73;11.65;;;;;;;6.60;100.00;100464.56;12189505;19;20023;-84
2022/12/01 00:55:20;;;;;;;25.23;12.07;;;;;;;6.58;100.00;100474.91;12210259;19;20014;-83
2022/12/01 00:59:22;;;;;;;25.23;11.65;;;;;;;6.58;100.00;100473.00;12207560;19;20043;-84
2022/12/01 01:03:25;;;;;;;22.20;11.13;;;;;;;6.56;100.00;100477.00;12188387;19;20078;-83
2022/12/01 01:07:28;;;;;;;25.65;11.27;;;;;;;6.53;100.00;100478.25;12211494;19;20500;-83
2022/12/01 01:11:30;;;;;;;24.30;10.45;;;;;;;6.52;100.00;100483.97;12212839;19;20018;-84
2022/12/01 01:15:32;;;;;;;24.23;11.15;;;;;;;6.47;100.00;100479.09;12184997;19;20027;-83
2022/12/01 01:19:34;;;;;;;25.40;11.27;;;;;;;6.46;100.00;100482.88;12188589;19;20011;-83
2022/12/01 01:23:36;;;;;;;23.88;12.02;;;;;;;6.36;100.00;100483.25;12196661;19;20927;-84
2022/12/01 01:27:37;;;;;;;27.23;12.18;;;;;;;6.30;100.00;100484.06;12174781;19;20812;-83
2022/12/01 01:31:39;;;;;;;24.70;12.38;;;;;;;6.27;100.00;100484.50;12200773;19;20035;-82
2022/12/01 01:35:41;;;;;;;28.42;11.82;;;;;;;6.22;100.00;100486.19;12197675;19;20003;-82
2022/12/01 01:39:42;;;;;;;30.02;12.27;;;;;;;6.21;100.00;100485.31;12174406;19;20003;-82
2022/12/01 01:43:54;;;;;;;26.45;12.60;;;;;;;6.22;100.00;100494.41;12197396;19;20562;-84
2022/12/01 01:47:58;;;;;;;24.88;11.52;;;;;;;6.22;100.00;100497.13;12200270;19;20015;-82
2022/12/01 01:52:03;;;;;;;29.45;11.65;;;;;;;6.20;100.00;100494.59;12175979;19;20003;-82
2022/12/01 01:56:06;;;;;;;27.42;12.40;;;;;;;6.18;100.00;100496.66;12209225;19;20364;-83
2022/12/01 02:00:11;;;;;;;25.23;11.60;;;;;;;6.19;100.00;100503.84;12188764;19;20003;-83
2022/12/01 02:04:14;;;;;;;29.33;12.55;;;;;;;6.19;100.00;100498.38;12210767;19;20006;-83
2022/12/01 02:08:15;;;;;;;24.25;11.40;;;;;;;6.16;100.00;100505.09;12211670;19;20018;-83
2022/12/01 02:12:53;;;;;;;36.03;13.65;;;;;;;6.13;100.00;100500.03;12202973;19;20468;-83
2022/12/01 02:17:30;;;;;;;28.75;12.68;;;;;;;6.11;100.00;100507.59;12221325;19;20009;-81
2022/12/01 02:21:59;;;;;;;28.52;13.00;;;;;;;6.13;100.00;100504.66;12196702;19;20017;-84
2022/12/01 02:26:21;;;;;;;31.90;12.40;;;;;;;6.12;100.00;100500.22;12221393;19;20035;-84
2022/12/01 02:30:59;;;;;;;29.75;12.90;;;;;;;6.07;100.00;100503.59;12199626;19;20042;-83
2022/12/01 02:35:47;;;;;;;27.23;12.55;;;;;;;6.02;100.00;100499.78;12214523;19;20358;-83
2022/12/01 02:40:07;;;;;;;29.95;13.95;;;;;;;6.04;100.00;100494.91;12197300;19;20021;-83
2022/12/01 02:44:15;;;;;;;28.45;13.05;;;;;;;6.04;100.00;100503.13;12223300;19;20030;-84
2022/12/01 02:48:26;;;;;;;32.80;13.32;;;;;;;6.03;100.00;100495.97;12199182;19;20015;-83
2022/12/01 02:52:28;;;;;;;31.88;13.05;;;;;;;5.95;100.00;100494.28;12215406;19;20118;-83
2022/12/01 02:56:29;;;;;;;25.55;12.48;;;;;;;5.98;100.00;100495.72;12214578;19;20358;-84
2022/12/01 03:00:31;;;;;;;30.83;12.50;;;;;;;6.00;100.00;100505.44;12192824;19;20043;-82
2022/12/01 03:05:03;;;;;;;32.35;15.05;;;;;;;5.98;100.00;100493.00;12212607;19;20003;-82
2022/12/01 03:09:27;;;;;;;33.38;14.10;;;;;;;5.96;100.00;100508.78;12188262;19;20492;-82
2022/12/01 03:13:50;;;;;;;;;;;;;;;5.89;100.00;100495.06;12214791;19;20032;-83
2022/12/01 03:18:07;;;;;;;26.80;11.75;;;;;;;5.93;100.00;100488.16;12208954;19;19910;-82
2022/12/01 03:22:15;;;;;;;27.67;12.45;;;;;;;5.92;100.00;100492.75;12182859;19;20007;-82
2022/12/01 03:26:21;;;;;;;24.88;12.57;;;;;;;5.92;100.00;100481.81;12215202;19;20010;-82
2022/12/01 03:30:26;;;;;;;31.98;12.88;;;;;;;5.93;100.00;100493.63;12194472;19;20023;-84
2022/12/01 03:34:34;;;;;;;31.85;13.60;;;;;;;5.95;100.00;100488.81;12228053;19;20002;-81
2022/12/01 03:38:36;;;;;;;28.65;11.82;;;;;;;5.99;100.00;100497.44;12271983;19;20007;-81
2022/12/01 03:42:43;;;;;;;31.63;14.48;;;;;;;5.92;100.00;100495.50;12238408;19;20384;-84
2022/12/01 03:46:55;;;;;;;30.60;12.82;;;;;;;5.93;100.00;100497.19;12222242;19;21200;-82
2022/12/01 03:51:10;;;;;;;27.13;12.38;;;;;;;5.88;100.00;100502.38;12217321;19;20073;-83
2022/12/01 03:55:28;;;;;;;26.90;12.02;;;;;;;5.87;100.00;100500.72;12193668;19;20520;-84
2022/12/01 03:59:34;;;;;;;32.63;13.55;;;;;;;5.89;100.00;100498.63;12218892;19;20006;-84
2022/12/01 04:03:39;;;;;;;25.42;12.63;;;;;;;5.85;100.00;100501.97;12203324;19;20030;-84
2022/12/01 04:07:40;;;;;;;27.25;11.82;;;;;;;5.82;100.00;100513.31;12233432;19;20018;-81
2022/12/01 04:16:03;;;;;;;30.98;12.07;;;;;;;5.83;100.00;100515.84;12197895;19;20420;-84
2022/12/01 04:20:06;;;;;;;30.98;12.82;;;;;;;5.87;100.00;100525.34;12206987;19;20103;-83
2022/12/01 04:24:08;;;;;;;26.33;12.55;;;;;;;5.92;100.00;100514.63;12183972;19;20011;-82
2022/12/01 04:28:09;;;;;;;25.95;11.98;;;;;;;5.95;100.00;100513.44;12204612;19;20006;-82
2022/12/01 04:32:12;;;;;;;27.20;11.90;;;;;;;5.93;100.00;100519.09;12202822;19;20018;-83
2022/12/01 04:36:13;;;;;;;29.52;13.05;;;;;;;5.91;100.00;100512.94;12183424;19;20006;-83
2022/12/01 04:40:17;;;;;;;28.38;11.82;;;;;;;5.89;100.00;100516.94;12201421;19;20261;-84
2022/12/01 04:44:19;;;;;;;27.13;11.23;;;;;;;5.83;100.00;100514.97;12210705;19;20344;-82
2022/12/01 04:48:21;;;;;;;25.08;11.77;;;;;;;5.79;100.00;100514.53;12190935;19;20014;-84
2022/12/01 04:52:22;;;;;;;26.60;11.45;;;;;;;5.78;100.00;100523.81;12215016;19;20356;-83
2022/12/01 04:56:24;;;;;;;27.63;12.48;;;;;;;5.80;100.00;100518.13;12213421;19;20010;-83
2022/12/01 05:00:26;;;;;;;24.88;11.40;;;;;;;5.75;100.00;100518.75;12189454;19;20080;-83
2022/12/01 05:04:30;;;;;;;24.43;10.43;;;;;;;5.71;100.00;100522.91;12204678;19;20006;-83
2022/12/01 05:08:32;;;;;;;24.98;11.27;;;;;;;5.69;100.00;100514.91;12201515;19;20010;-84
2022/12/01 05:12:34;;;;;;;23.23;10.38;;;;;;;5.67;100.00;100519.72;12183261;19;20006;-83
2022/12/01 05:16:36;;;;;;;20.17;9.60;;;;;;;5.65;100.00;100519.09;12213569;19;20006;-84
2022/12/01 05:20:56;;;;;;;23.25;9.35;;;;;;;5.69;100.00;100523.13;12209812;19;20014;-83
2022/12/01 05:24:58;;;;;;;20.38;10.15;;;;;;;5.70;100.00;100526.69;12191477;19;19999;-83
2022/12/01 05:29:00;;;;;;;23.53;10.37;;;;;;;5.72;100.00;100524.63;12207261;19;20006;-84
2022/12/01 05:33:02;;;;;;;25.13;10.85;;;;;;;5.72;100.00;100530.09;12205490;19;20006;-83
2022/12/01 05:37:04;;;;;;;24.83;10.45;;;;;;;5.70;100.00;100529.44;12176803;19;20003;-84
2022/12/01 05:41:06;;;;;;;19.93;9.00;;;;;;;5.70;100.00;100519.34;12201983;19;20011;-83
2022/12/01 05:45:08;;;;;;;22.00;9.95;;;;;;;5.69;100.00;100525.00;12181945;19;20053;-82
2022/12/01 05:49:09;;;;;;;23.00;10.30;;;;;;;5.63;100.00;100526.66;12210730;19;20783;-82
2022/12/01 05:53:12;;;;;;;22.52;9.93;;;;;;;5.57;100.00;100518.41;12212433;19;20007;-83
2022/12/01 05:57:14;;;;;;;24.70;9.57;;;;;;;5.58;100.00;100522.84;12187845;19;20018;-83
2022/12/01 06:01:15;;;;;;;27.88;11.23;;;;;;;5.58;100.00;100544.69;12211527;19;20009;-83
2022/12/01 06:05:17;;;;;;;24.50;11.60;;;;;;;5.55;100.00;100540.47;12210193;19;20077;-83
2022/12/01 06:09:21;;;;;;;26.10;11.10;;;;;;;5.57;100.00;100535.66;12187050;19;20437;-82
2022/12/01 06:13:22;;;;;;;27.30;10.40;;;;;;;5.62;100.00;100541.38;12213210;19;20484;-83
2022/12/01 06:17:24;;;;;;;26.92;11.00;;;;;;;5.63;100.00;100542.22;12212878;19;20275;-83
2022/12/01 06:21:25;;;;;;;25.65;11.77;;;;;;;5.65;100.00;100549.19;12199153;19;20027;-82
2022/12/01 06:25:27;;;;;;;22.85;10.63;;;;;;;5.67;100.00;100559.91;12205270;19;20032;-83
2022/12/01 06:29:29;;;;;;;26.63;10.65;;;;;;;5.67;100.00;100555.28;12201723;19;20007;-83
2022/12/01 06:33:31;;;;;;;39.60;18.27;;;;;;;5.72;100.00;100551.97;12172803;19;20054;-82
2022/12/01 06:37:32;;;;;;;32.10;13.77;;;;;;;5.67;100.00;100557.19;12185987;19;20010;-82
2022/12/01 06:41:38;;;;;;;28.38;14.65;;;;;;;5.55;100.00;100561.50;12167051;19;20003;-82
2022/12/01 06:45:39;;;;;;;28.42;11.40;;;;;;;5.52;100.00;100562.75;12180543;19;20564;-82
2022/12/01 06:49:41;;;;;;;26.05;11.38;;;;;;;5.46;100.00;100569.84;12200159;19;20023;-82
2022/12/01 06:53:43;;;;;;;25.80;10.95;;;;;;;5.43;100.00;100566.66;12191759;19;20007;-82
2022/12/01 06:57:44;;;;;;;31.55;14.07;;;;;;;5.47;100.00;100576.16;12176585;19;20352;-81
2022/12/01 07:01:46;;;;;;;27.75;12.38;;;;;;;5.48;100.00;100569.66;12198799;19;20014;-82
2022/12/01 07:05:59;;;;;;;40.90;18.20;;;;;;;5.48;100.00;100588.78;12201022;19;20002;-81
2022/12/01 07:10:01;;;;;;;23.42;11.00;;;;;;;5.42;100.00;100587.69;12181919;19;20003;-82
2022/12/01 07:14:02;;;;;;;27.00;12.18;;;;;;;5.42;100.00;100589.59;12201125;19;20106;-83
2022/12/01 07:18:04;;;;;;;27.45;10.20;;;;;;;5.44;100.00;100590.22;12188713;19;20006;-83
2022/12/01 07:22:06;;;;;;;25.55;12.45;;;;;;;5.42;100.00;100589.59;12196814;19;20050;-83
2022/12/01 07:26:16;;;;;;;20.38;9.30;;;;;;;5.39;100.00;100595.44;12198679;19;20010;-82
2022/12/01 07:30:17;;;;;;;23.15;10.23;;;;;;;5.39;100.00;100596.28;12174125;19;20010;-82
2022/12/01 07:34:19;;;;;;;19.52;9.10;;;;;;;5.35;100.00;100607.78;12197045;19;20002;-83
2022/12/01 07:38:21;;;;;;;21.45;9.30;;;;;;;5.32;100.00;100611.75;12196388;19;20002;-83
2022/12/01 07:42:23;;;;;;;21.02;9.73;;;;;;;5.35;100.00;100611.38;12174505;19;20013;-82
2022/12/01 07:46:26;;;;;;;20.73;8.82;;;;;;;5.43;100.00;100613.13;12194572;19;20010;-82
2022/12/01 07:50:27;;;;;;;19.48;9.52;;;;;;;5.42;99.59;100612.28;12199172;19;20014;-82
2022/12/01 07:54:29;;;;;;;22.45;10.57;;;;;;;5.46;99.99;100613.59;12170309;19;20048;-82
2022/12/01 07:58:31;;;;;;;22.85;9.93;;;;;;;5.49;99.11;100618.66;12195886;19;20010;-82
2022/12/01 08:02:33;;;;;;;23.92;10.05;;;;;;;5.50;98.66;100611.28;12195956;19;20036;-82
2022/12/01 08:06:35;;;;;;;21.42;8.93;;;;;;;5.52;98.52;100611.09;12176143;19;20027;-82
2022/12/01 08:10:36;;;;;;;23.15;10.10;;;;;;;5.59;98.50;100609.25;12196213;19;20006;-83
2022/12/01 08:14:38;;;;;;;20.23;8.82;;;;;;;5.65;97.69;100617.53;12198413;19;21496;-83
2022/12/01 08:18:41;;;;;;;20.30;8.75;;;;;;;5.67;97.52;100620.06;12178718;19;20010;-82
2022/12/01 08:22:43;;;;;;;22.02;10.20;;;;;;;5.72;97.21;100623.91;12195848;19;20042;-82
2022/12/01 08:26:44;;;;;;;20.23;9.07;;;;;;;5.80;97.27;100628.38;12203768;19;20082;-81
2022/12/01 08:30:46;;;;;;;19.17;8.73;;;;;;;5.87;96.52;100625.69;12182224;19;20720;-82
2022/12/01 08:34:48;;;;;;;17.83;9.13;;;;;;;5.90;95.88;100626.13;12198876;19;20507;-82
2022/12/01 08:38:54;;;;;;;50.97;22.35;;;;;;;6.01;95.53;100632.13;12197908;19;20468;-82
2022/12/01 08:42:56;;;;;;;19.47;10.57;;;;;;;6.08;93.53;100622.09;12177659;19;20031;-82
2022/12/01 08:46:58;;;;;;;20.33;9.85;;;;;;;6.16;94.60;100628.25;12203264;19;20253;-81
2022/12/01 08:51:14;;;;;;;17.60;8.45;;;;;;;6.24;93.91;100635.44;12202510;19;20082;-81
2022/12/01 08:55:16;;;;;;;18.23;8.55;;;;;;;6.31;93.31;100641.81;12172183;19;20011;-82
2022/12/01 08:59:18;;;;;;;19.83;8.82;;;;;;;6.36;92.84;100641.19;12199076;19;20039;-82
2022/12/01 09:03:19;;;;;;;20.58;9.30;;;;;;;6.43;92.88;100636.63;12177741;19;20011;-81
2022/12/01 09:07:21;;;;;;;27.35;11.70;;;;;;;6.47;92.34;100634.31;12207587;19;20457;-83
2022/12/01 09:11:27;;;;;;;19.23;8.95;;;;;;;6.34;91.01;100641.41;12242991;19;19999;-81
2022/12/01 09:15:30;;;;;;;17.75;8.90;;;;;;;6.29;89.56;100640.31;12220949;19;21449;-81
2022/12/01 09:19:32;;;;;;;17.60;8.20;;;;;;;6.33;91.45;100641.59;12200275;19;20066;-83
2022/12/01 09:23:34;;;;;;;18.67;8.05;;;;;;;6.49;91.50;100637.69;12203846;19;19999;-83
2022/12/01 09:27:36;;;;;;;15.88;7.63;;;;;;;6.68;89.13;100652.53;12179427;19;20017;-82
2022/12/01 09:31:37;;;;;;;15.98;7.97;;;;;;;6.90;89.77;100651.38;12201257;19;20831;-83
2022/12/01 09:35:39;;;;;;;13.43;7.15;;;;;;;6.99;87.83;100652.00;12202984;19;19999;-82
2022/12/01 09:39:40;;;;;;;13.85;6.50;;;;;;;7.01;87.22;100647.16;12178309;19;20011;-82
2022/12/01 09:44:04;;;;;;;13.25;7.28;;;;;;;6.92;84.58;100642.91;12195348;19;20003;-83
2022/12/01 09:48:12;;;;;;;13.93;6.65;;;;;;;6.85;85.57;100640.16;12201317;19;20031;-83
2022/12/01 09:52:17;;;;;;;17.88;7.32;;;;;;;6.82;84.85;100633.19;12182701;19;20006;-82
2022/12/01 09:56:26;;;;;;;16.48;8.07;;;;;;;6.68;84.66;100625.13;12230925;19;20039;-81
2022/12/01 10:00:44;;;;;;;12.85;6.38;;;;;;;6.66;85.99;100625.31;12227280;19;20006;-80
2022/12/01 10:04:50;;;;;;;14.68;7.20;;;;;;;6.61;85.13;100622.38;12207971;19;20036;-83
2022/12/01 10:09:09;;;;;;;13.68;7.03;;;;;;;6.68;84.22;100604.06;12200364;19;20006;-82
2022/12/01 10:13:22;;;;;;;16.83;7.85;;;;;;;6.73;84.86;100607.03;12174847;19;20052;-83
2022/12/01 10:17:39;;;;;;;13.15;6.75;;;;;;;6.74;84.43;100595.03;12192869;19;20449;-82
2022/12/01 10:22:16;;;;;;;13.13;6.60;;;;;;;6.88;85.48;100595.91;12172259;19;20392;-82
2022/12/01 10:26:40;;;;;;;14.15;6.55;;;;;;;7.08;84.77;100591.34;12202245;19;20007;-83
2022/12/01 10:30:49;;;;;;;13.10;6.55;;;;;;;7.27;84.58;100592.41;12181745;19;20457;-83
2022/12/01 10:34:51;;;;;;;15.25;7.15;;;;;;;7.35;84.08;100576.78;12205637;19;20071;-82
2022/12/01 10:38:53;;;;;;;16.55;7.20;;;;;;;7.41;84.13;100585.03;12205106;19;20007;-82
2022/12/01 10:42:54;;;;;;;14.83;7.00;;;;;;;7.51;83.82;100579.97;12188633;19;20003;-82
2022/12/01 10:46:56;;;;;;;12.48;6.28;;;;;;;7.48;83.04;100566.69;12204724;19;20011;-82
2022/12/01 10:51:16;;;;;;;13.10;6.82;;;;;;;7.53;82.98;100568.81;12202486;19;20657;-82
2022/12/01 10:55:33;;;;;;;11.57;7.07;;;;;;;7.69;83.22;100559.28;12180840;19;19998;-83
2022/12/01 10:59:47;;;;;;;14.25;6.38;;;;;;;7.72;82.61;100559.69;12202157;19;20007;-82
2022/12/01 11:03:55;;;;;;;15.95;7.60;;;;;;;7.67;82.14;100562.22;12184755;19;20007;-82
2022/12/01 11:07:58;;;;;;;14.68;7.20;;;;;;;7.74;82.40;100560.34;12204245;19;20138;-82
2022/12/01 11:12:01;;;;;;;13.73;6.63;;;;;;;7.75;81.69;100553.78;12209988;19;21395;-82
2022/12/01 11:16:05;;;;;;;16.42;6.85;;;;;;;7.69;81.15;100549.16;12184546;19;20006;-82
2022/12/01 11:20:26;;;;;;;15.20;7.55;;;;;;;7.60;80.46;100546.84;12205802;19;20373;-83
2022/12/01 11:24:56;;;;;;;14.30;6.40;;;;;;;7.51;81.28;100544.31;12182567;19;20013;-82
2022/12/01 11:29:01;;;;;;;11.95;6.38;;;;;;;7.47;80.39;100553.19;12206452;19;20006;-81
2022/12/01 11:33:03;;;;;;;15.10;7.60;;;;;;;7.51;81.07;100555.28;12205005;19;19998;-83
2022/12/01 11:37:16;;;;;;;15.57;6.67;;;;;;;7.44;80.12;100539.91;12188195;19;20030;-83
2022/12/01 11:41:26;;;;;;;12.18;6.10;;;;;;;7.51;81.13;100552.53;12202697;19;20014;-82
2022/12/01 11:45:38;;;;;;;13.02;6.75;;;;;;;7.59;80.58;100539.69;12183705;19;21108;-84
2022/12/01 11:49:45;;;;;;;36.03;18.02;;;;;;;7.61;80.25;100534.81;12202451;19;20003;-83
2022/12/01 11:53:48;;;;;;;18.38;10.10;;;;;;;7.72;80.38;100532.28;12206911;19;20337;-83
2022/12/01 11:57:53;;;;;;;12.45;6.82;;;;;;;7.70;79.51;100525.31;12178705;19;20003;-83
2022/12/01 12:02:55;;;;;;;14.43;6.18;;;;;;;7.61;80.44;100532.91;12197647;19;20007;-82
2022/12/01 12:07:08;;;;;;;14.18;6.63;;;;;;;7.70;80.49;100534.41;12171934;19;20007;-82
2022/12/01 12:11:37;;;;;;;15.88;6.97;;;;;;;7.79;80.27;100529.50;12192906;19;20345;-82
2022/12/01 12:15:49;;;;;;;10.82;5.75;;;;;;;7.85;80.31;100525.94;12176179;19;20088;-82
2022/12/01 12:20:29;;;;;;;16.55;6.15;;;;;;;7.66;78.90;100521.31;12201615;19;20002;-83
2022/12/01 12:24:47;;;;;;;12.88;6.68;;;;;;;7.70;80.28;100512.47;12176902;19;20607;-82
2022/12/01 12:28:58;;;;;;;14.15;6.07;;;;;;;7.85;79.86;100505.84;12199661;19;20006;-83
2022/12/01 12:33:12;;;;;;;11.77;6.55;;;;;;;7.75;78.39;100512.63;12196917;19;20003;-83
2022/12/01 12:37:38;;;;;;;12.15;6.03;;;;;;;7.84;79.04;100493.22;12176305;19;20033;-83
2022/12/01 12:41:44;;;;;;;13.23;5.72;;;;;;;7.96;79.33;100496.97;12197291;19;20024;-83
2022/12/01 12:46:10;;;;;;;14.15;6.93;;;;;;;8.06;79.00;100494.63;12185536;19;20133;-82
2022/12/01 12:50:35;;;;;;;12.68;6.85;;;;;;;8.09;79.48;100494.19;12210351;19;20031;-83
2022/12/01 12:54:52;;;;;;;14.27;6.30;;;;;;;7.94;79.34;100497.19;12180188;19;20003;-83
2022/12/01 12:58:59;;;;;;;12.18;6.13;;;;;;;7.82;80.08;100500.78;12196002;19;20039;-83
2022/12/01 13:03:16;;;;;;;14.88;7.20;;;;;;;7.75;80.41;100501.66;12196624;19;20016;-83
2022/12/01 13:07:36;;;;;;;13.77;6.65;;;;;;;7.77;80.74;100501.47;12177171;19;20034;-83
2022/12/01 13:12:04;;;;;;;15.80;7.65;;;;;;;7.87;80.92;100501.84;12198159;19;20021;-83
2022/12/01 13:16:16;;;;;;;15.40;7.18;;;;;;;8.00;80.82;100495.47;12180123;19;20014;-84
2022/12/01 13:20:22;;;;;;;18.73;8.10;;;;;;;7.86;80.30;100497.41;12204094;19;22202;-82
2022/12/01 13:24:28;;;;;;;21.05;8.88;;;;;;;7.63;80.71;100486.91;12185307;19;20255;-83
2022/12/01 13:28:39;;;;;;;18.52;9.52;;;;;;;7.49;81.76;100488.00;12214280;19;20002;-83
2022/12/01 13:32:41;;;;;;;20.75;9.55;;;;;;;7.52;82.21;100490.31;12214577;19;20026;-82
2022/12/01 13:36:52;;;;;;;20.20;8.98;;;;;;;7.45;82.07;100482.09;12184741;19;20011;-83
2022/12/01 13:41:12;;;;;;;19.27;9.18;;;;;;;7.53;82.84;100483.78;12198180;19;20002;-83
2022/12/01 13:45:18;;;;;;;19.95;8.35;;;;;;;7.71;82.33;100480.38;12182009;19;20020;-83
2022/12/01 13:49:41;;;;;;;19.45;9.55;;;;;;;7.88;82.16;100472.50;12199700;19;20010;-83
2022/12/01 13:54:17;;;;;;;18.50;8.32;;;;;;;8.01;81.49;100472.47;12199844;19;20342;-83
2022/12/01 13:58:25;;;;;;;20.20;8.75;;;;;;;8.07;81.43;100477.09;12172593;19;20139;-84
2022/12/01 14:02:33;;;;;;;20.13;9.27;;;;;;;8.07;80.72;100470.75;12183538;19;20011;-83
2022/12/01 14:06:37;;;;;;;16.05;8.98;;;;;;;7.97;80.87;100468.44;12188834;19;20055;-82
2022/12/01 14:10:39;;;;;;;18.55;8.57;;;;;;;7.87;81.21;100468.06;12229870;19;20055;-83
2022/12/01 14:14:59;;;;;;;18.80;9.00;;;;;;;7.80;81.48;100459.03;12258453;19;20139;-82
2022/12/01 14:19:01;;;;;;;19.10;8.43;;;;;;;7.75;81.69;100466.00;12193262;19;20003;-81
2022/12/01 14:23:03;;;;;;;16.40;7.07;;;;;;;7.75;81.58;100449.53;12203660;19;20003;-83
2022/12/01 14:27:32;;;;;;;18.63;10.40;;;;;;;7.73;81.75;100445.31;12202103;19;20043;-83
2022/12/01 14:31:34;;;;;;;16.77;7.90;;;;;;;7.71;81.88;100459.25;12181605;19;20010;-83
2022/12/01 14:35:38;;;;;;;18.48;8.50;;;;;;;7.64;82.48;100452.94;12204813;19;20007;-83
2022/12/01 14:39:43;;;;;;;15.67;7.27;;;;;;;7.45;82.10;100460.16;12182025;19;20011;-83
2022/12/01 14:44:03;;;;;;;16.95;8.13;;;;;;;7.27;83.78;100451.75;12202990;19;20072;-83
2022/12/01 14:48:11;;;;;;;19.75;9.98;;;;;;;7.05;84.05;100454.72;12195947;19;20055;-83
2022/12/01 14:52:37;;;;;;;18.67;8.25;;;;;;;6.90;85.09;100455.97;12178793;19;20489;-82
2022/12/01 14:56:51;;;;;;;17.77;8.07;;;;;;;6.85;85.40;100449.22;12201327;19;20472;-83
2022/12/01 15:06:21;;;;;;;21.48;8.82;;;;;;;6.71;85.83;100446.69;12178234;19;20019;-83
2022/12/01 15:10:33;;;;;;;20.60;9.48;;;;;;;6.65;86.22;100448.38;12198830;19;20014;-83
2022/12/01 15:14:52;;;;;;;;;;;;;;;6.55;86.79;100454.25;12198583;19;20027;-84
2022/12/01 15:18:54;;;;;;;22.42;8.77;;;;;;;6.39;87.36;100444.56;12174740;19;19911;-83
2022/12/01 15:23:00;;;;;;;24.90;10.63;;;;;;;6.31;88.09;100450.22;12197562;19;20031;-83
2022/12/01 15:27:02;;;;;;;25.20;11.10;;;;;;;6.24;89.14;100446.59;12199535;19;20003;-84
2022/12/01 15:31:10;;;;;;;26.95;11.88;;;;;;;6.25;89.40;100453.78;12179135;19;20016;-84
2022/12/01 15:35:24;;;;;;;27.90;12.15;;;;;;;6.22;90.40;100448.72;12195580;19;20010;-83
2022/12/01 15:39:45;;;;;;;25.98;12.15;;;;;;;6.20;90.79;100449.97;12176840;19;20031;-83
2022/12/01 15:44:16;;;;;;;26.60;12.32;;;;;;;6.20;91.22;100450.81;12198723;19;20015;-83
2022/12/01 15:48:26;;;;;;;24.25;11.30;;;;;;;6.16;91.83;100453.09;12176783;19;20011;-83
2022/12/01 15:52:28;;;;;;;25.17;10.95;;;;;;;6.14;92.13;100452.47;12195704;19;20575;-84
2022/12/01 15:56:40;;;;;;;25.02;11.07;;;;;;;6.11;92.24;100447.41;12199904;19;20007;-84
2022/12/01 16:00:53;;;;;;;32.63;14.93;;;;;;;6.13;92.88;100444.47;12173423;19;20035;-84
2022/12/01 16:05:14;;;;;;;31.27;12.45;;;;;;;6.11;92.88;100452.88;12201094;19;20046;-84
2022/12/01 16:09:25;;;;;;;30.63;13.00;;;;;;;6.12;93.59;100453.72;12190979;19;20035;-83
2022/12/01 16:13:54;;;;;;;32.97;13.70;;;;;;;6.13;94.24;100456.25;12254990;19;19995;-83
2022/12/01 16:18:04;;;;;;;36.63;15.85;;;;;;;6.14;94.07;100452.47;12236183;19;20006;-84
2022/12/01 16:22:23;;;;;;;29.33;13.05;;;;;;;6.18;93.64;100457.53;12184477;19;20009;-84
2022/12/01 16:26:38;;;;;;;26.52;12.10;;;;;;;6.14;94.08;100455.19;12202175;19;20007;-84
2022/12/01 16:31:20;;;;;;;36.70;13.50;;;;;;;6.09;95.00;100457.69;12178354;19;20010;-85
2022/12/01 16:35:51;;;;;;;36.08;14.07;;;;;;;6.06;94.87;100449.91;12202580;19;20118;-84
2022/12/01 16:39:54;;;;;;;35.63;15.13;;;;;;;6.08;94.44;100457.91;12178487;19;20031;-83
2022/12/01 16:44:35;;;;;;;33.55;14.57;;;;;;;5.96;95.43;100462.28;12195795;19;20468;-84
2022/12/01 16:48:37;;;;;;;33.92;13.75;;;;;;;5.92;95.54;100465.41;12180309;19;20018;-84
2022/12/01 16:52:40;;;;;;;32.75;15.23;;;;;;;5.92;96.27;100470.03;12196358;19;20485;-84
2022/12/01 16:56:48;;;;;;;37.42;15.48;;;;;;;5.86;96.07;100463.47;12200158;19;20008;-84
2022/12/01 17:00:54;;;;;;;33.72;14.48;;;;;;;5.82;96.01;100470.38;12176486;19;20378;-84
2022/12/01 17:04:55;;;;;;;44.53;17.00;;;;;;;5.81;96.56;100471.44;12196043;19;20006;-84
2022/12/01 17:08:57;;;;;;;35.60;15.55;;;;;;;5.85;96.53;100471.88;12198627;19;20017;-83
2022/12/01 17:12:59;;;;;;;34.25;15.27;;;;;;;5.83;96.53;100480.28;12172313;19;20068;-82
2022/12/01 17:17:00;;;;;;;41.47;17.70;;;;;;;5.74;97.50;100480.66;12197804;19;20081;-84
2022/12/01 17:21:05;;;;;;;37.08;14.95;;;;;;;5.74;97.30;100478.78;12195477;19;20338;-84
2022/12/01 17:25:08;;;;;;;36.10;14.35;;;;;;;5.63;98.52;100482.06;12175135;19;20060;-84
2022/12/01 17:29:10;;;;;;;;;;;;;;;5.65;98.41;100477.22;12198057;19;20027;-83
2022/12/01 17:33:11;;;;;;;33.67;13.80;;;;;;;5.61;98.61;100473.22;12199947;19;19915;-83
2022/12/01 17:37:13;;;;;;;36.80;15.13;;;;;;;5.62;98.72;100480.38;12178339;19;20007;-84
2022/12/01 17:41:23;;;;;;;33.58;14.30;;;;;;;5.66;98.94;100471.56;12195760;19;20027;-84
2022/12/01 17:45:25;;;;;;;35.72;14.40;;;;;;;5.74;98.14;100478.78;12178487;19;20423;-83
2022/12/01 17:49:26;;;;;;;34.90;14.73;;;;;;;5.78;98.39;100476.47;12196642;19;20045;-83
2022/12/01 17:53:28;;;;;;;35.22;14.70;;;;;;;5.80;98.54;100479.84;12193444;19;20516;-83
2022/12/01 17:57:29;;;;;;;33.00;13.80;;;;;;;5.86;97.98;100482.63;12172790;19;20342;-83
2022/12/01 18:01:31;;;;;;;40.58;15.00;;;;;;;5.86;98.11;100477.16;12193506;19;20487;-83
2022/12/01 18:05:33;;;;;;;34.78;14.57;;;;;;;5.86;98.23;100482.63;12192013;19;20003;-84
2022/12/01 18:09:35;;;;;;;38.85;14.50;;;;;;;5.90;98.26;100480.31;12171335;19;20006;-85
2022/12/01 18:13:39;;;;;;;41.88;16.35;;;;;;;5.87;98.21;100478.00;12195737;19;20003;-84
2022/12/01 18:17:40;;;;;;;32.70;14.50;;;;;;;5.82;98.13;100477.75;12198586;19;20006;-83
2022/12/01 18:21:42;;;;;;;41.10;16.55;;;;;;;5.83;98.71;100472.09;12176936;19;20034;-85
2022/12/01 18:25:44;;;;;;;60.15;23.55;;;;;;;5.83;98.45;100474.81;12198449;19;20017;-84
2022/12/01 18:29:46;;;;;;;64.13;26.50;;;;;;;5.76;98.62;100468.47;12200260;19;20006;-84
2022/12/01 18:33:48;;;;;;;54.20;23.50;;;;;;;5.75;98.92;100474.16;12175027;19;20035;-82
2022/12/01 18:37:49;;;;;;;45.88;19.30;;;;;;;5.70;99.46;100472.84;12195568;19;20345;-83
2022/12/01 18:41:51;;;;;;;41.33;16.23;;;;;;;5.65;99.40;100474.50;12195543;19;20006;-83
2022/12/01 18:45:54;;;;;;;58.67;26.42;;;;;;;5.60;100.00;100472.38;12175742;19;20010;-83
2022/12/01 18:49:55;;;;;;;45.33;20.92;;;;;;;5.55;100.00;100469.41;12195357;19;20006;-82
2022/12/01 18:53:59;;;;;;;61.95;26.05;;;;;;;5.56;100.00;100471.09;12206696;19;20014;-82
2022/12/01 18:58:01;;;;;;;47.78;19.98;;;;;;;5.55;100.00;100474.88;12186225;19;19999;-82